sensor_id;sensor_type;location;lat;lon;timestamp;pressure;altitude;pressure_sealevel;temperature;humidity
69257;BME280;56376;53.356;-1.748;2022-09-23T00:00:44;99466.94;;;12.78;100.00
69257;BME280;56376;53.356;-1.748;2022-09-23T00:03:10;99465.25;;;12.77;100.00
69257;BME280;56376;53.356;-1.748;2022-09-23T00:05:35;99464.47;;;12.75;100.00
69257;BME280;56376;53.356;-1.748;2022-09-23T00:08:03;99457.66;;;12.71;100.00
69257;BME280;56376;53.356;-1.748;2022-09-23T00:10:29;99458.50;;;12.72;100.00
69257;BME280;56376;53.356;-1.748;2022-09-23T00:13:01;99459.44;;;12.71;100.00
69257;BME280;56376;53.356;-1.748;2022-09-23T00:15:27;99460.44;;;12.68;100.00
69257;BME280;56376;53.356;-1.748;2022-09-23T00:17:56;99462.25;;;12.66;100.00
69257;BME280;56376;53.356;-1.748;2022-09-23T00:20:22;99458.00;;;12.64;100.00
69257;BME280;56376;53.356;-1.748;2022-09-23T00:22:48;99460.78;;;12.61;100.00
69257;BME280;56376;53.356;-1.748;2022-09-23T00:25:15;99463.53;;;12.58;100.00
69257;BME280;56376;53.356;-1.748;2022-09-23T00:27:40;99460.94;;;12.58;100.00
69257;BME280;56376;53.356;-1.748;2022-09-23T00:30:08;99451.34;;;12.56;100.00
69257;BME280;56376;53.356;-1.748;2022-09-23T00:32:34;99456.53;;;12.58;100.00
69257;BME280;56376;53.356;-1.748;2022-09-23T00:35:01;99444.31;;;12.57;100.00
69257;BME280;56376;53.356;-1.748;2022-09-23T00:37:28;99454.69;;;12.60;100.00
69257;BME280;56376;53.356;-1.748;2022-09-23T00:39:54;99455.38;;;12.64;100.00
69257;BME280;56376;53.356;-1.748;2022-09-23T00:42:20;99452.72;;;12.65;100.00
69257;BME280;56376;53.356;-1.748;2022-09-23T00:44:52;99456.19;;;12.66;100.00
69257;BME280;56376;53.356;-1.748;2022-09-23T00:49:59;99454.19;;;12.71;100.00
69257;BME280;56376;53.356;-1.748;2022-09-23T00:52:27;99448.81;;;12.74;100.00
69257;BME280;56376;53.356;-1.748;2022-09-23T00:54:55;99440.88;;;12.75;100.00
69257;BME280;56376;53.356;-1.748;2022-09-23T00:57:22;99449.44;;;12.79;100.00
69257;BME280;56376;53.356;-1.748;2022-09-23T00:59:49;99445.91;;;12.80;100.00
69257;BME280;56376;53.356;-1.748;2022-09-23T01:02:16;99452.91;;;12.80;100.00
69257;BME280;56376;53.356;-1.748;2022-09-23T01:04:43;99446.81;;;12.79;100.00
69257;BME280;56376;53.356;-1.748;2022-09-23T01:07:08;99446.81;;;12.79;100.00
69257;BME280;56376;53.356;-1.748;2022-09-23T01:09:34;99445.13;;;12.78;100.00
69257;BME280;56376;53.356;-1.748;2022-09-23T01:17:42;99437.38;;;12.75;100.00
69257;BME280;56376;53.356;-1.748;2022-09-23T01:20:56;99444.41;;;12.74;100.00
69257;BME280;56376;53.356;-1.748;2022-09-23T01:34:23;99436.47;;;12.76;100.00
69257;BME280;56376;53.356;-1.748;2022-09-23T01:36:54;99440.00;;;12.75;100.00
69257;BME280;56376;53.356;-1.748;2022-09-23T01:39:32;99449.59;;;12.76;100.00
69257;BME280;56376;53.356;-1.748;2022-09-23T01:44:57;99441.78;;;12.74;100.00
69257;BME280;56376;53.356;-1.748;2022-09-23T01:47:52;99435.69;;;12.74;100.00
69257;BME280;56376;53.356;-1.748;2022-09-23T01:50:32;99435.69;;;12.74;100.00
69257;BME280;56376;53.356;-1.748;2022-09-23T01:53:32;99438.31;;;12.74;100.00
69257;BME280;56376;53.356;-1.748;2022-09-23T01:56:06;99432.13;;;12.75;100.00
69257;BME280;56376;53.356;-1.748;2022-09-23T02:01:18;99435.63;;;12.75;100.00
69257;BME280;56376;53.356;-1.748;2022-09-23T02:03:54;99434.72;;;12.76;100.00
69257;BME280;56376;53.356;-1.748;2022-09-23T02:06:27;99437.25;;;12.78;100.00
69257;BME280;56376;53.356;-1.748;2022-09-23T02:09:01;99443.34;;;12.78;100.00
69257;BME280;56376;53.356;-1.748;2022-09-23T02:11:28;99442.56;;;12.76;100.00
69257;BME280;56376;53.356;-1.748;2022-09-23T02:14:04;99444.28;;;12.77;100.00
69257;BME280;56376;53.356;-1.748;2022-09-23T02:16:33;99431.19;;;12.77;100.00
69257;BME280;56376;53.356;-1.748;2022-09-23T02:19:09;99430.41;;;12.75;100.00
69257;BME280;56376;53.356;-1.748;2022-09-23T02:21:43;99436.47;;;12.76;100.00
69257;BME280;56376;53.356;-1.748;2022-09-23T02:24:18;99441.78;;;12.74;100.00
69257;BME280;56376;53.356;-1.748;2022-09-23T02:40:39;99438.63;;;12.68;100.00
69257;BME280;56376;53.356;-1.748;2022-09-23T02:43:11;99437.75;;;12.67;100.00
69257;BME280;56376;53.356;-1.748;2022-09-23T02:45:41;99428.25;;;12.65;100.00
69257;BME280;56376;53.356;-1.748;2022-09-23T02:48:12;99436.91;;;12.67;100.00
69257;BME280;56376;53.356;-1.748;2022-09-23T02:50:39;99436.06;;;12.66;100.00
69257;BME280;56376;53.356;-1.748;2022-09-23T02:53:05;99445.59;;;12.67;100.00
69257;BME280;56376;53.356;-1.748;2022-09-23T02:55:31;99438.69;;;12.66;100.00
69257;BME280;56376;53.356;-1.748;2022-09-23T02:58:00;99440.38;;;12.67;100.00
69257;BME280;56376;53.356;-1.748;2022-09-23T03:00:52;99438.53;;;12.69;100.00
69257;BME280;56376;53.356;-1.748;2022-09-23T03:06:31;99452.72;;;12.65;100.00
69257;BME280;56376;53.356;-1.748;2022-09-23T03:09:11;99453.69;;;12.63;100.00
69257;BME280;56376;53.356;-1.748;2022-09-23T03:11:39;99447.59;;;12.62;100.00
69257;BME280;56376;53.356;-1.748;2022-09-23T03:16:58;99463.25;;;12.64;100.00
69257;BME280;56376;53.356;-1.748;2022-09-23T03:22:14;99464.03;;;12.66;100.00
69257;BME280;56376;53.356;-1.748;2022-09-23T03:24:44;99464.03;;;12.66;100.00
69257;BME280;56376;53.356;-1.748;2022-09-23T03:27:20;99464.94;;;12.65;100.00
69257;BME280;56376;53.356;-1.748;2022-09-23T03:29:49;99465.81;;;12.65;100.00
69257;BME280;56376;53.356;-1.748;2022-09-23T03:32:18;99465.66;;;12.68;100.00
69257;BME280;56376;53.356;-1.748;2022-09-23T03:34:47;99454.34;;;12.68;100.00
69257;BME280;56376;53.356;-1.748;2022-09-23T03:37:34;99455.25;;;12.67;100.00
69257;BME280;56376;53.356;-1.748;2022-09-23T03:40:11;99463.03;;;12.68;100.00
69257;BME280;56376;53.356;-1.748;2022-09-23T03:42:37;99456.97;;;12.68;100.00
69257;BME280;56376;53.356;-1.748;2022-09-23T03:45:10;99466.66;;;12.66;100.00
69257;BME280;56376;53.356;-1.748;2022-09-23T03:47:37;99457.94;;;12.65;100.00
69257;BME280;56376;53.356;-1.748;2022-09-23T03:50:04;99462.41;;;12.63;100.00
69257;BME280;56376;53.356;-1.748;2022-09-23T03:52:29;99459.84;;;12.62;100.00
69257;BME280;56376;53.356;-1.748;2022-09-23T03:54:55;99457.31;;;12.60;100.00
69257;BME280;56376;53.356;-1.748;2022-09-23T03:57:21;99451.28;;;12.58;100.00
69257;BME280;56376;53.356;-1.748;2022-09-23T03:59:48;99455.69;;;12.58;100.00
69257;BME280;56376;53.356;-1.748;2022-09-23T04:02:15;99457.53;;;12.55;100.00
69257;BME280;56376;53.356;-1.748;2022-09-23T04:04:41;99457.66;;;12.52;100.00
69257;BME280;56376;53.356;-1.748;2022-09-23T04:07:08;99469.00;;;12.53;100.00
69257;BME280;56376;53.356;-1.748;2022-09-23T04:09:35;99468.25;;;12.49;100.00
69257;BME280;56376;53.356;-1.748;2022-09-23T04:12:01;99461.38;;;12.47;100.00
69257;BME280;56376;53.356;-1.748;2022-09-23T04:14:28;99458.06;;;12.43;100.00
69257;BME280;56376;53.356;-1.748;2022-09-23T04:16:53;99463.44;;;12.40;100.00
69257;BME280;56376;53.356;-1.748;2022-09-23T04:19:19;99459.25;;;12.36;100.00
69257;BME280;56376;53.356;-1.748;2022-09-23T04:21:45;99454.06;;;12.34;100.00
69257;BME280;56376;53.356;-1.748;2022-09-23T04:24:11;99456.06;;;12.29;100.00
69257;BME280;56376;53.356;-1.748;2022-09-23T04:26:37;99461.53;;;12.25;100.00
69257;BME280;56376;53.356;-1.748;2022-09-23T04:29:03;99464.25;;;12.22;100.00
69257;BME280;56376;53.356;-1.748;2022-09-23T04:31:30;99462.69;;;12.18;100.00
69257;BME280;56376;53.356;-1.748;2022-09-23T04:33:56;99468.19;;;12.11;100.00
69257;BME280;56376;53.356;-1.748;2022-09-23T04:36:22;99472.63;;;12.09;100.00
69257;BME280;56376;53.356;-1.748;2022-09-23T04:38:49;99475.47;;;12.05;100.00
69257;BME280;56376;53.356;-1.748;2022-09-23T04:41:16;99473.09;;;11.99;100.00
69257;BME280;56376;53.356;-1.748;2022-09-23T04:43:43;99475.81;;;11.97;100.00
69257;BME280;56376;53.356;-1.748;2022-09-23T04:46:10;99469.91;;;11.92;100.00
69257;BME280;56376;53.356;-1.748;2022-09-23T04:48:37;99478.81;;;11.88;100.00
69257;BME280;56376;53.356;-1.748;2022-09-23T04:51:12;99466.72;;;11.84;100.00
69257;BME280;56376;53.356;-1.748;2022-09-23T04:53:38;99476.44;;;11.82;100.00
69257;BME280;56376;53.356;-1.748;2022-09-23T04:56:09;99474.00;;;11.77;100.00
69257;BME280;56376;53.356;-1.748;2022-09-23T04:58:36;99475.16;;;11.70;100.00
69257;BME280;56376;53.356;-1.748;2022-09-23T05:01:27;99477.03;;;11.66;100.00
69257;BME280;56376;53.356;-1.748;2022-09-23T05:03:56;99478.25;;;11.59;100.00
69257;BME280;56376;53.356;-1.748;2022-09-23T05:06:22;99481.09;;;11.53;100.00
69257;BME280;56376;53.356;-1.748;2022-09-23T05:08:50;99484.03;;;11.45;100.00
69257;BME280;56376;53.356;-1.748;2022-09-23T05:11:16;99480.59;;;11.43;100.00
69257;BME280;56376;53.356;-1.748;2022-09-23T05:13:46;99491.34;;;11.37;100.00
69257;BME280;56376;53.356;-1.748;2022-09-23T05:16:12;99494.16;;;11.31;100.00
69257;BME280;56376;53.356;-1.748;2022-09-23T05:18:39;99488.22;;;11.27;100.00
69257;BME280;56376;53.356;-1.748;2022-09-23T05:21:07;99497.09;;;11.23;100.00
69257;BME280;56376;53.356;-1.748;2022-09-23T05:23:34;99505.00;;;11.22;100.00
69257;BME280;56376;53.356;-1.748;2022-09-23T05:26:02;99501.72;;;11.17;100.00
69257;BME280;56376;53.356;-1.748;2022-09-23T05:28:29;99506.28;;;11.12;100.00
69257;BME280;56376;53.356;-1.748;2022-09-23T05:31:07;99512.41;;;11.11;100.00
69257;BME280;56376;53.356;-1.748;2022-09-23T05:33:41;99512.50;;;11.09;100.00
69257;BME280;56376;53.356;-1.748;2022-09-23T05:36:07;99511.75;;;11.05;100.00
69257;BME280;56376;53.356;-1.748;2022-09-23T05:38:34;99511.06;;;11.00;100.00
69257;BME280;56376;53.356;-1.748;2022-09-23T05:41:05;99503.31;;;10.99;100.00
69257;BME280;56376;53.356;-1.748;2022-09-23T05:43:31;99506.94;;;10.95;100.00
69257;BME280;56376;53.356;-1.748;2022-09-23T05:46:10;99508.03;;;10.89;100.00
69257;BME280;56376;53.356;-1.748;2022-09-23T05:48:37;99502.91;;;10.86;100.00
69257;BME280;56376;53.356;-1.748;2022-09-23T05:51:04;99510.81;;;10.85;100.00
69257;BME280;56376;53.356;-1.748;2022-09-23T05:53:33;99517.91;;;10.81;100.00
69257;BME280;56376;53.356;-1.748;2022-09-23T05:55:58;99516.31;;;10.77;100.00
69257;BME280;56376;53.356;-1.748;2022-09-23T05:58:24;99519.09;;;10.72;100.00
69257;BME280;56376;53.356;-1.748;2022-09-23T06:00:50;99507.25;;;10.64;100.00
69257;BME280;56376;53.356;-1.748;2022-09-23T06:03:19;99516.09;;;10.59;100.00
69257;BME280;56376;53.356;-1.748;2022-09-23T06:05:45;99523.19;;;10.56;100.00
69257;BME280;56376;53.356;-1.748;2022-09-23T06:08:12;99517.31;;;10.49;100.00
69257;BME280;56376;53.356;-1.748;2022-09-23T06:10:39;99522.75;;;10.43;100.00
69257;BME280;56376;53.356;-1.748;2022-09-23T06:13:05;99521.19;;;10.39;100.00
69257;BME280;56376;53.356;-1.748;2022-09-23T06:15:31;99523.03;;;10.35;100.00
69257;BME280;56376;53.356;-1.748;2022-09-23T06:17:57;99529.28;;;10.31;100.00
69257;BME280;56376;53.356;-1.748;2022-09-23T06:20:23;99530.25;;;10.29;99.34
69257;BME280;56376;53.356;-1.748;2022-09-23T06:22:48;99538.19;;;10.24;98.33
69257;BME280;56376;53.356;-1.748;2022-09-23T06:25:14;99542.84;;;10.16;96.87
69257;BME280;56376;53.356;-1.748;2022-09-23T06:27:40;99548.13;;;10.13;97.44
69257;BME280;56376;53.356;-1.748;2022-09-23T06:30:06;99550.00;;;10.09;97.97
69257;BME280;56376;53.356;-1.748;2022-09-23T06:32:32;99548.41;;;10.05;97.87
69257;BME280;56376;53.356;-1.748;2022-09-23T06:34:57;99558.91;;;10.04;98.53
69257;BME280;56376;53.356;-1.748;2022-09-23T06:37:23;99554.66;;;10.01;98.39
69257;BME280;56376;53.356;-1.748;2022-09-23T06:39:48;99557.25;;;10.01;98.80
69257;BME280;56376;53.356;-1.748;2022-09-23T06:42:14;99553.81;;;10.01;98.62
69257;BME280;56376;53.356;-1.748;2022-09-23T06:44:41;99561.63;;;10.01;98.95
69257;BME280;56376;53.356;-1.748;2022-09-23T06:47:06;99552.88;;;10.02;99.70
69257;BME280;56376;53.356;-1.748;2022-09-23T06:49:32;99561.44;;;10.05;99.97
69257;BME280;56376;53.356;-1.748;2022-09-23T06:51:58;99557.09;;;10.06;100.00
69257;BME280;56376;53.356;-1.748;2022-09-23T06:54:23;99557.88;;;10.08;100.00
69257;BME280;56376;53.356;-1.748;2022-09-23T06:56:52;99559.66;;;10.07;100.00
69257;BME280;56376;53.356;-1.748;2022-09-23T06:59:18;99563.97;;;10.08;100.00
69257;BME280;56376;53.356;-1.748;2022-09-23T07:01:43;99559.59;;;10.09;100.00
69257;BME280;56376;53.356;-1.748;2022-09-23T07:04:12;99562.94;;;10.12;100.00
69257;BME280;56376;53.356;-1.748;2022-09-23T07:06:37;99556.78;;;10.15;100.00
69257;BME280;56376;53.356;-1.748;2022-09-23T07:09:05;99559.13;;;10.23;100.00
69257;BME280;56376;53.356;-1.748;2022-09-23T07:11:30;99559.66;;;10.34;100.00
69257;BME280;56376;53.356;-1.748;2022-09-23T07:13:56;99561.75;;;10.48;100.00
69257;BME280;56376;53.356;-1.748;2022-09-23T07:16:21;99559.56;;;10.60;100.00
69257;BME280;56376;53.356;-1.748;2022-09-23T07:18:47;99559.97;;;10.73;100.00
69257;BME280;56376;53.356;-1.748;2022-09-23T07:21:14;99564.72;;;10.87;100.00
69257;BME280;56376;53.356;-1.748;2022-09-23T07:23:42;99567.75;;;10.98;100.00
69257;BME280;56376;53.356;-1.748;2022-09-23T07:26:08;99565.78;;;11.05;100.00
69257;BME280;56376;53.356;-1.748;2022-09-23T07:28:34;99563.88;;;11.09;100.00
69257;BME280;56376;53.356;-1.748;2022-09-23T07:31:11;99563.69;;;11.15;100.00
69257;BME280;56376;53.356;-1.748;2022-09-23T07:33:39;99560.78;;;11.22;100.00
69257;BME280;56376;53.356;-1.748;2022-09-23T07:36:17;99566.50;;;11.32;100.00
69257;BME280;56376;53.356;-1.748;2022-09-23T07:38:44;99567.00;;;11.42;100.00
69257;BME280;56376;53.356;-1.748;2022-09-23T07:41:13;99567.28;;;11.56;100.00
69257;BME280;56376;53.356;-1.748;2022-09-23T07:43:39;99571.13;;;11.69;100.00
69257;BME280;56376;53.356;-1.748;2022-09-23T07:46:08;99567.22;;;11.80;100.00
69257;BME280;56376;53.356;-1.748;2022-09-23T07:48:35;99576.34;;;11.91;100.00
69257;BME280;56376;53.356;-1.748;2022-09-23T07:51:10;99570.72;;;12.02;100.00
69257;BME280;56376;53.356;-1.748;2022-09-23T07:53:36;99563.19;;;12.15;100.00
69257;BME280;56376;53.356;-1.748;2022-09-23T07:56:02;99570.59;;;12.26;100.00
69257;BME280;56376;53.356;-1.748;2022-09-23T07:58:31;99564.81;;;12.38;100.00
69257;BME280;56376;53.356;-1.748;2022-09-23T08:01:07;99565.09;;;12.52;100.00
69257;BME280;56376;53.356;-1.748;2022-09-23T08:03:34;99569.84;;;12.63;99.95
69257;BME280;56376;53.356;-1.748;2022-09-23T08:06:26;99570.78;;;12.81;99.33
69257;BME280;56376;53.356;-1.748;2022-09-23T08:08:52;99571.94;;;12.94;98.60
69257;BME280;56376;53.356;-1.748;2022-09-23T08:11:18;99575.69;;;13.08;98.61
69257;BME280;56376;53.356;-1.748;2022-09-23T08:13:43;99574.28;;;13.19;98.00
69257;BME280;56376;53.356;-1.748;2022-09-23T08:16:09;99572.06;;;13.31;97.45
69257;BME280;56376;53.356;-1.748;2022-09-23T08:18:34;99581.09;;;13.42;97.19
69257;BME280;56376;53.356;-1.748;2022-09-23T08:21:00;99582.25;;;13.56;96.41
69257;BME280;56376;53.356;-1.748;2022-09-23T08:23:25;99575.75;;;13.63;95.03
69257;BME280;56376;53.356;-1.748;2022-09-23T08:25:56;99575.94;;;13.77;92.71
69257;BME280;56376;53.356;-1.748;2022-09-23T08:28:24;99586.53;;;13.93;91.96
69257;BME280;56376;53.356;-1.748;2022-09-23T08:30:50;99581.41;;;14.09;89.67
69257;BME280;56376;53.356;-1.748;2022-09-23T08:33:16;99580.63;;;14.24;87.40
69257;BME280;56376;53.356;-1.748;2022-09-23T08:35:42;99594.59;;;14.42;87.52
69257;BME280;56376;53.356;-1.748;2022-09-23T08:38:07;99584.13;;;14.60;86.24
69257;BME280;56376;53.356;-1.748;2022-09-23T08:40:39;99585.09;;;14.75;83.15
69257;BME280;56376;53.356;-1.748;2022-09-23T08:43:06;99585.13;;;14.90;81.99
69257;BME280;56376;53.356;-1.748;2022-09-23T08:45:33;99585.84;;;15.10;79.51
69257;BME280;56376;53.356;-1.748;2022-09-23T08:48:05;99579.31;;;15.17;78.30
69257;BME280;56376;53.356;-1.748;2022-09-23T08:50:53;99588.41;;;15.27;77.88
69257;BME280;56376;53.356;-1.748;2022-09-23T08:53:25;99580.50;;;15.43;79.36
69257;BME280;56376;53.356;-1.748;2022-09-23T08:55:54;99584.16;;;15.56;78.58
69257;BME280;56376;53.356;-1.748;2022-09-23T08:58:51;99588.59;;;15.72;77.44
69257;BME280;56376;53.356;-1.748;2022-09-23T09:01:32;99586.22;;;15.83;77.03
69257;BME280;56376;53.356;-1.748;2022-09-23T09:06:58;99579.88;;;16.01;74.73
69257;BME280;56376;53.356;-1.748;2022-09-23T09:09:34;99585.19;;;16.16;74.80
69257;BME280;56376;53.356;-1.748;2022-09-23T09:12:06;99581.84;;;16.28;73.42
69257;BME280;56376;53.356;-1.748;2022-09-23T09:17:36;99581.50;;;16.63;72.16
69257;BME280;56376;53.356;-1.748;2022-09-23T09:20:20;99581.84;;;16.87;71.59
69257;BME280;56376;53.356;-1.748;2022-09-23T09:23:05;99584.22;;;17.06;69.74
69257;BME280;56376;53.356;-1.748;2022-09-23T09:27:59;99580.28;;;17.26;68.51
69257;BME280;56376;53.356;-1.748;2022-09-23T09:30:24;99587.94;;;17.30;68.05
69257;BME280;56376;53.356;-1.748;2022-09-23T09:33:00;99588.31;;;17.39;66.07
69257;BME280;56376;53.356;-1.748;2022-09-23T09:35:33;99588.19;;;17.40;66.25
69257;BME280;56376;53.356;-1.748;2022-09-23T09:38:02;99585.28;;;17.45;66.61
69257;BME280;56376;53.356;-1.748;2022-09-23T09:40:28;99582.34;;;17.49;67.10
69257;BME280;56376;53.356;-1.748;2022-09-23T09:42:53;99579.28;;;17.56;67.37
69257;BME280;56376;53.356;-1.748;2022-09-23T09:48:12;99572.06;;;17.45;64.86
69257;BME280;56376;53.356;-1.748;2022-09-23T09:50:50;99579.22;;;17.43;64.44
69257;BME280;56376;53.356;-1.748;2022-09-23T09:53:25;99578.41;;;17.42;65.02
69257;BME280;56376;53.356;-1.748;2022-09-23T09:56:14;99576.78;;;17.40;63.81
69257;BME280;56376;53.356;-1.748;2022-09-23T09:58:43;99573.97;;;17.28;63.28
69257;BME280;56376;53.356;-1.748;2022-09-23T10:01:36;99571.56;;;17.11;63.87
69257;BME280;56376;53.356;-1.748;2022-09-23T10:04:29;99579.09;;;17.03;64.95
69257;BME280;56376;53.356;-1.748;2022-09-23T10:07:05;99581.84;;;17.01;66.10
69257;BME280;56376;53.356;-1.748;2022-09-23T10:09:36;99576.09;;;16.95;64.68
69257;BME280;56376;53.356;-1.748;2022-09-23T10:12:13;99572.13;;;16.87;65.24
69257;BME280;56376;53.356;-1.748;2022-09-23T10:14:44;99569.69;;;16.84;65.07
69257;BME280;56376;53.356;-1.748;2022-09-23T10:17:16;99575.50;;;16.75;64.34
69257;BME280;56376;53.356;-1.748;2022-09-23T10:19:46;99576.72;;;16.70;65.52
69257;BME280;56376;53.356;-1.748;2022-09-23T10:22:22;99570.78;;;16.66;67.14
69257;BME280;56376;53.356;-1.748;2022-09-23T10:24:53;99570.69;;;16.67;64.66
69257;BME280;56376;53.356;-1.748;2022-09-23T10:27:27;99572.09;;;16.59;65.93
69257;BME280;56376;53.356;-1.748;2022-09-23T10:29:55;99568.91;;;16.54;67.75
69257;BME280;56376;53.356;-1.748;2022-09-23T10:34:55;99578.88;;;16.49;68.08
69257;BME280;56376;53.356;-1.748;2022-09-23T10:37:39;99572.06;;;16.44;67.82
69257;BME280;56376;53.356;-1.748;2022-09-23T10:40:32;99576.28;;;16.33;68.73
69257;BME280;56376;53.356;-1.748;2022-09-23T10:46:38;99572.91;;;16.45;70.03
69257;BME280;56376;53.356;-1.748;2022-09-23T10:52:28;99565.78;;;16.47;68.59
69257;BME280;56376;53.356;-1.748;2022-09-23T10:58:13;99565.78;;;16.47;68.93
69257;BME280;56376;53.356;-1.748;2022-09-23T11:01:01;99562.94;;;16.50;69.65
69257;BME280;56376;53.356;-1.748;2022-09-23T11:03:56;99558.53;;;16.51;68.75
69257;BME280;56376;53.356;-1.748;2022-09-23T11:15:03;99566.03;;;16.28;67.11
69257;BME280;56376;53.356;-1.748;2022-09-23T11:18:14;99557.19;;;16.29;67.48
69257;BME280;56376;53.356;-1.748;2022-09-23T11:21:02;99555.19;;;16.33;70.88
69257;BME280;56376;53.356;-1.748;2022-09-23T11:26:19;99559.81;;;16.29;68.66
69257;BME280;56376;53.356;-1.748;2022-09-23T11:34:41;99556.63;;;16.38;65.63
69257;BME280;56376;53.356;-1.748;2022-09-23T11:37:16;99553.28;;;16.51;67.12
69257;BME280;56376;53.356;-1.748;2022-09-23T11:39:48;99552.22;;;16.67;65.00
69257;BME280;56376;53.356;-1.748;2022-09-23T11:42:28;99558.75;;;16.76;66.48
69257;BME280;56376;53.356;-1.748;2022-09-23T11:44:59;99542.75;;;16.94;65.95
69257;BME280;56376;53.356;-1.748;2022-09-23T11:47:32;99546.41;;;17.05;64.96
69257;BME280;56376;53.356;-1.748;2022-09-23T11:52:49;99550.47;;;17.11;62.41
69257;BME280;56376;53.356;-1.748;2022-09-23T11:55:34;99543.31;;;16.99;63.76
69257;BME280;56376;53.356;-1.748;2022-09-23T11:58:04;99531.16;;;16.96;64.42
69257;BME280;56376;53.356;-1.748;2022-09-23T12:00:38;99541.78;;;17.09;62.97
69257;BME280;56376;53.356;-1.748;2022-09-23T12:03:15;99532.84;;;17.12;61.92
69257;BME280;56376;53.356;-1.748;2022-09-23T12:05:58;99531.13;;;17.11;61.96
69257;BME280;56376;53.356;-1.748;2022-09-23T12:08:32;99530.63;;;17.18;64.18
69257;BME280;56376;53.356;-1.748;2022-09-23T12:11:09;99532.06;;;17.24;64.11
69257;BME280;56376;53.356;-1.748;2022-09-23T12:19:16;99528.94;;;17.32;62.56
69257;BME280;56376;53.356;-1.748;2022-09-23T12:27:06;99528.72;;;17.35;59.37
69257;BME280;56376;53.356;-1.748;2022-09-23T12:29:35;99530.25;;;17.24;59.89
69257;BME280;56376;53.356;-1.748;2022-09-23T12:32:02;99523.47;;;17.20;60.46
69257;BME280;56376;53.356;-1.748;2022-09-23T12:34:40;99530.53;;;17.20;60.10
69257;BME280;56376;53.356;-1.748;2022-09-23T12:37:12;99530.81;;;17.29;60.47
69257;BME280;56376;53.356;-1.748;2022-09-23T12:39:37;99522.59;;;17.34;60.22
69257;BME280;56376;53.356;-1.748;2022-09-23T12:42:14;99524.84;;;17.40;57.57
69257;BME280;56376;53.356;-1.748;2022-09-23T12:44:42;99533.50;;;17.42;58.39
69257;BME280;56376;53.356;-1.748;2022-09-23T12:47:29;99537.19;;;17.40;57.31
69257;BME280;56376;53.356;-1.748;2022-09-23T12:50:01;99529.09;;;17.28;57.58
69257;BME280;56376;53.356;-1.748;2022-09-23T12:52:31;99525.91;;;17.23;57.46
69257;BME280;56376;53.356;-1.748;2022-09-23T12:57:46;99529.06;;;17.43;55.96
69257;BME280;56376;53.356;-1.748;2022-09-23T13:05:51;99523.84;;;17.56;56.81
69257;BME280;56376;53.356;-1.748;2022-09-23T13:08:38;99519.41;;;17.56;56.81
69257;BME280;56376;53.356;-1.748;2022-09-23T13:11:07;99519.22;;;17.59;57.10
69257;BME280;56376;53.356;-1.748;2022-09-23T13:13:42;99514.81;;;17.72;56.49
69257;BME280;56376;53.356;-1.748;2022-09-23T13:26:46;99525.53;;;17.57;55.09
69257;BME280;56376;53.356;-1.748;2022-09-23T13:29:18;99511.69;;;17.53;55.79
69257;BME280;56376;53.356;-1.748;2022-09-23T13:31:45;99519.34;;;17.43;55.88
69257;BME280;56376;53.356;-1.748;2022-09-23T13:34:14;99515.31;;;17.38;56.28
69257;BME280;56376;53.356;-1.748;2022-09-23T13:36:45;99522.47;;;17.36;56.78
69257;BME280;56376;53.356;-1.748;2022-09-23T13:39:18;99527.97;;;17.33;56.93
69257;BME280;56376;53.356;-1.748;2022-09-23T13:41:46;99520.88;;;17.33;57.14
69257;BME280;56376;53.356;-1.748;2022-09-23T13:44:15;99517.41;;;17.33;57.20
69257;BME280;56376;53.356;-1.748;2022-09-23T13:46:46;99526.28;;;17.32;56.37
69257;BME280;56376;53.356;-1.748;2022-09-23T13:49:24;99520.53;;;17.25;57.16
69257;BME280;56376;53.356;-1.748;2022-09-23T13:51:51;99522.53;;;17.21;56.90
69257;BME280;56376;53.356;-1.748;2022-09-23T13:55:00;99510.75;;;17.13;57.57
69257;BME280;56376;53.356;-1.748;2022-09-23T13:57:31;99507.69;;;17.06;57.17
69257;BME280;56376;53.356;-1.748;2022-09-23T14:00:16;99503.34;;;17.05;57.35
69257;BME280;56376;53.356;-1.748;2022-09-23T14:02:42;99510.69;;;17.00;57.56
69257;BME280;56376;53.356;-1.748;2022-09-23T14:05:23;99504.09;;;17.07;57.83
69257;BME280;56376;53.356;-1.748;2022-09-23T14:07:50;99500.00;;;17.16;57.20
69257;BME280;56376;53.356;-1.748;2022-09-23T14:10:19;99499.69;;;17.35;56.22
69257;BME280;56376;53.356;-1.748;2022-09-23T14:12:46;99489.16;;;17.47;54.24
69257;BME280;56376;53.356;-1.748;2022-09-23T14:15:14;99489.41;;;17.57;55.75
69257;BME280;56376;53.356;-1.748;2022-09-23T14:17:47;99489.66;;;17.67;54.86
69257;BME280;56376;53.356;-1.748;2022-09-23T14:20:15;99494.06;;;17.66;53.45
69257;BME280;56376;53.356;-1.748;2022-09-23T14:22:41;99495.53;;;17.58;54.16
69257;BME280;56376;53.356;-1.748;2022-09-23T14:25:16;99502.47;;;17.46;53.53
69257;BME280;56376;53.356;-1.748;2022-09-23T14:27:43;99503.25;;;17.34;53.15
69257;BME280;56376;53.356;-1.748;2022-09-23T14:30:15;99495.66;;;17.29;53.77
69257;BME280;56376;53.356;-1.748;2022-09-23T14:32:42;99501.66;;;17.31;53.27
69257;BME280;56376;53.356;-1.748;2022-09-23T14:35:23;99491.75;;;17.35;55.35
69257;BME280;56376;53.356;-1.748;2022-09-23T14:37:56;99506.84;;;17.33;55.62
69257;BME280;56376;53.356;-1.748;2022-09-23T14:40:51;99493.66;;;17.33;56.99
69257;BME280;56376;53.356;-1.748;2022-09-23T14:43:25;99497.59;;;17.40;55.98
69257;BME280;56376;53.356;-1.748;2022-09-23T14:45:54;99505.50;;;17.40;55.25
69257;BME280;56376;53.356;-1.748;2022-09-23T14:48:39;99499.88;;;17.32;56.33
69257;BME280;56376;53.356;-1.748;2022-09-23T14:51:08;99494.91;;;17.27;57.03
69257;BME280;56376;53.356;-1.748;2022-09-23T14:53:39;99500.19;;;17.27;57.71
69257;BME280;56376;53.356;-1.748;2022-09-23T14:58:55;99498.19;;;17.30;57.83
69257;BME280;56376;53.356;-1.748;2022-09-23T15:04:17;99499.13;;;17.29;56.61
69257;BME280;56376;53.356;-1.748;2022-09-23T15:07:01;99497.41;;;17.28;56.71
69257;BME280;56376;53.356;-1.748;2022-09-23T15:09:31;99500.19;;;17.27;57.18
69257;BME280;56376;53.356;-1.748;2022-09-23T15:12:17;99507.25;;;17.26;57.67